createdAt,value
2022-09-12T00:01:06.679Z,13.40
2022-09-12T00:03:34.660Z,13.40
2022-09-12T00:06:02.763Z,13.40
2022-09-12T00:08:30.600Z,13.40
2022-09-12T00:10:59.782Z,13.40
2022-09-12T00:13:28.082Z,13.30
2022-09-12T00:15:55.918Z,13.30
2022-09-12T00:18:23.731Z,13.20
2022-09-12T00:20:51.544Z,13.30
2022-09-12T00:23:19.679Z,13.20
2022-09-12T00:25:49.224Z,13.20
2022-09-12T00:28:19.868Z,13.20
2022-09-12T00:30:49.976Z,13.20
2022-09-12T00:33:19.117Z,13.20
2022-09-12T00:35:49.167Z,13.20
2022-09-12T00:38:18.181Z,13.20
2022-09-12T00:40:46.584Z,13.10
2022-09-12T00:43:15.886Z,13.10
2022-09-12T00:45:45.502Z,13.10
2022-09-12T00:48:22.692Z,13.00
2022-09-12T00:50:51.472Z,13.00
2022-09-12T00:53:19.628Z,13.00
2022-09-12T00:55:51.244Z,12.90
2022-09-12T00:58:24.229Z,12.90
2022-09-12T01:00:53.827Z,12.90
2022-09-12T01:03:24.309Z,12.80
2022-09-12T01:06:00.554Z,12.80
2022-09-12T01:08:29.555Z,12.80
2022-09-12T01:10:57.956Z,12.80
2022-09-12T01:13:25.966Z,12.80
2022-09-12T01:15:55.801Z,12.80
2022-09-12T01:18:30.495Z,12.70
2022-09-12T01:21:16.946Z,12.70
2022-09-12T01:24:15.054Z,12.70
2022-09-12T01:27:31.041Z,12.70
2022-09-12T01:30:26.131Z,12.70
2022-09-12T01:33:20.212Z,12.70
2022-09-12T01:35:55.122Z,12.70
2022-09-12T01:38:32.859Z,12.60
2022-09-12T01:41:10.309Z,12.60
2022-09-12T01:43:48.266Z,12.60
2022-09-12T01:46:20.640Z,12.50
2022-09-12T01:48:57.241Z,12.50
2022-09-12T01:51:29.452Z,12.50
2022-09-12T01:54:03.966Z,12.50
2022-09-12T01:56:34.820Z,12.50
2022-09-12T01:59:06.848Z,12.50
2022-09-12T02:01:38.061Z,12.50
2022-09-12T02:04:10.881Z,12.50
2022-09-12T02:06:44.661Z,12.40
2022-09-12T02:09:19.547Z,12.40
2022-09-12T02:11:48.673Z,12.30
2022-09-12T02:14:21.637Z,12.30
2022-09-12T02:16:54.384Z,12.30
2022-09-12T02:19:28.337Z,12.30
2022-09-12T02:21:58.895Z,12.20
2022-09-12T02:24:31.324Z,12.20
2022-09-12T02:27:04.733Z,12.10
2022-09-12T02:29:32.591Z,12.10
2022-09-12T02:32:05.164Z,12.10
2022-09-12T02:34:44.145Z,12.10
2022-09-12T02:37:18.985Z,12.10
2022-09-12T02:39:46.961Z,12.00
2022-09-12T02:42:14.902Z,12.00
2022-09-12T02:44:43.177Z,12.10
2022-09-12T02:47:15.132Z,12.10
2022-09-12T02:49:44.486Z,12.10
2022-09-12T02:52:12.521Z,12.10
2022-09-12T02:54:41.172Z,12.10
2022-09-12T02:57:21.866Z,12.00
2022-09-12T02:59:52.079Z,12.00
2022-09-12T03:02:29.918Z,11.90
2022-09-12T03:05:22.280Z,12.00
2022-09-12T03:08:23.346Z,12.00
2022-09-12T03:11:15.885Z,11.90
2022-09-12T03:13:55.015Z,11.90
2022-09-12T03:16:32.193Z,11.80
2022-09-12T03:19:07.401Z,11.90
2022-09-12T03:21:48.651Z,11.80
2022-09-12T03:24:20.476Z,11.80
2022-09-12T03:26:53.736Z,11.80
2022-09-12T03:29:22.725Z,11.80
2022-09-12T03:31:52.630Z,11.80
2022-09-12T03:34:21.406Z,11.70
2022-09-12T03:36:51.061Z,11.70
2022-09-12T03:39:20.322Z,11.70
2022-09-12T03:41:48.173Z,11.60
2022-09-12T03:44:16.441Z,11.60
2022-09-12T03:46:44.271Z,11.60
2022-09-12T03:49:12.442Z,11.60
2022-09-12T03:51:40.335Z,11.60
2022-09-12T03:54:12.401Z,11.60
2022-09-12T03:56:40.315Z,11.60
2022-09-12T03:59:08.877Z,11.60
2022-09-12T04:01:37.775Z,11.50
2022-09-12T04:04:05.646Z,11.50
2022-09-12T04:06:33.596Z,11.50
2022-09-12T04:09:01.444Z,11.50
2022-09-12T04:11:32.137Z,11.50
2022-09-12T04:14:00.023Z,11.50
2022-09-12T04:16:27.979Z,11.40
2022-09-12T04:18:56.052Z,11.40
2022-09-12T04:21:23.901Z,11.40
2022-09-12T04:23:52.089Z,11.30
2022-09-12T04:26:21.408Z,11.30
2022-09-12T04:28:56.181Z,11.30
2022-09-12T04:31:24.818Z,11.20
2022-09-12T04:33:55.697Z,11.10
2022-09-12T04:36:28.038Z,11.20
2022-09-12T04:38:56.561Z,11.20
2022-09-12T04:41:26.241Z,11.20
2022-09-12T04:43:58.189Z,11.20
2022-09-12T04:46:26.860Z,11.30
2022-09-12T04:48:57.091Z,11.30
2022-09-12T04:51:27.727Z,11.30
2022-09-12T04:53:57.835Z,11.40
2022-09-12T04:56:26.464Z,11.40
2022-09-12T04:58:57.343Z,11.50
2022-09-12T05:01:25.249Z,11.60
2022-09-12T05:03:53.500Z,11.60
2022-09-12T05:06:24.542Z,11.60
2022-09-12T05:08:53.315Z,11.60
2022-09-12T05:11:26.582Z,11.60
2022-09-12T05:13:59.887Z,11.70
2022-09-12T05:16:29.760Z,11.80
2022-09-12T05:18:58.357Z,11.80
2022-09-12T05:21:27.877Z,11.90
2022-09-12T05:23:56.821Z,11.90
2022-09-12T05:26:25.131Z,12.00
2022-09-12T05:28:54.088Z,12.00
2022-09-12T05:31:25.048Z,12.10
2022-09-12T05:33:55.006Z,12.10
2022-09-12T05:36:24.907Z,12.20
2022-09-12T05:38:52.795Z,12.20
2022-09-12T05:41:25.010Z,12.30
2022-09-12T05:43:54.853Z,12.30
2022-09-12T05:46:25.641Z,12.40
2022-09-12T05:48:56.436Z,12.50
2022-09-12T05:51:26.514Z,12.50
2022-09-12T05:53:56.609Z,12.60
2022-09-12T05:56:26.466Z,12.60
2022-09-12T05:58:59.872Z,12.70
2022-09-12T06:01:30.719Z,12.80
2022-09-12T06:04:01.332Z,12.80
2022-09-12T06:06:30.851Z,12.90
2022-09-12T06:09:00.426Z,13.00
2022-09-12T06:11:30.568Z,13.10
2022-09-12T06:13:59.985Z,13.10
2022-09-12T06:16:31.155Z,13.20
2022-09-12T06:19:00.791Z,13.20
2022-09-12T06:21:30.741Z,13.30
2022-09-12T06:23:59.658Z,13.40
2022-09-12T06:26:29.184Z,13.50
2022-09-12T06:28:59.040Z,13.50
2022-09-12T06:31:30.005Z,13.60
2022-09-12T06:34:00.975Z,13.70
2022-09-12T06:36:30.929Z,13.80
2022-09-12T06:39:00.787Z,13.80
2022-09-12T06:41:29.875Z,13.90
2022-09-12T06:43:58.807Z,14.00
2022-09-12T06:46:28.072Z,14.00
2022-09-12T06:48:59.438Z,14.10
2022-09-12T06:51:29.925Z,14.10
2022-09-12T06:53:59.232Z,14.20
2022-09-12T06:56:28.541Z,14.20
2022-09-12T06:58:58.215Z,14.30
2022-09-12T07:01:27.437Z,14.50
2022-09-12T07:03:56.808Z,14.60
2022-09-12T07:06:31.679Z,14.70
2022-09-12T07:09:00.865Z,14.80
2022-09-12T07:11:31.799Z,14.90
2022-09-12T07:14:01.321Z,14.90
2022-09-12T07:16:30.333Z,15.00
2022-09-12T07:19:00.266Z,15.20
2022-09-12T07:21:30.267Z,15.30
2022-09-12T07:23:58.732Z,15.40
2022-09-12T07:26:27.612Z,15.50
2022-09-12T07:29:12.789Z,15.60
2022-09-12T07:31:45.544Z,15.70
2022-09-12T07:34:13.894Z,15.80
2022-09-12T07:36:43.113Z,15.90
2022-09-12T07:39:11.317Z,16.10
2022-09-12T07:41:39.169Z,16.40
2022-09-12T07:44:07.193Z,16.60
2022-09-12T07:46:35.365Z,17.00
2022-09-12T07:49:03.805Z,17.50
2022-09-12T07:51:32.524Z,17.90
2022-09-12T07:54:02.677Z,18.40
2022-09-12T07:56:33.682Z,18.90
2022-09-12T07:59:03.864Z,19.20
2022-09-12T08:01:31.820Z,19.50
2022-09-12T08:04:01.520Z,19.70
2022-09-12T08:06:33.727Z,20.10
2022-09-12T08:09:03.061Z,20.20
2022-09-12T08:11:31.061Z,20.50
2022-09-12T08:14:00.036Z,20.70
2022-09-12T08:16:31.056Z,21.10
2022-09-12T08:19:00.764Z,21.50
2022-09-12T08:21:31.922Z,21.80
2022-09-12T08:24:02.477Z,22.10
2022-09-12T08:26:31.074Z,22.30
2022-09-12T08:28:58.970Z,22.50
2022-09-12T08:31:28.614Z,22.50
2022-09-12T08:33:57.523Z,22.50
2022-09-12T08:36:27.203Z,22.90
2022-09-12T08:39:00.013Z,23.20
2022-09-12T08:41:34.672Z,23.70
2022-09-12T08:44:19.786Z,24.20
2022-09-12T08:46:59.741Z,24.60
2022-09-12T08:49:31.690Z,25.20
2022-09-12T08:52:04.676Z,25.50
2022-09-12T08:54:33.773Z,25.90
2022-09-12T08:57:05.756Z,25.90
2022-09-12T08:59:38.013Z,26.00
2022-09-12T09:02:20.756Z,26.20
2022-09-12T09:04:52.899Z,26.50
2022-09-12T09:07:50.236Z,26.40
2022-09-12T09:10:28.430Z,26.70
2022-09-12T09:13:07.782Z,26.50
2022-09-12T09:15:44.003Z,26.40
2022-09-12T09:18:19.455Z,26.30
2022-09-12T09:20:50.773Z,26.60
2022-09-12T09:23:24.523Z,26.50
2022-09-12T09:25:57.958Z,25.90
2022-09-12T09:28:35.846Z,25.30
2022-09-12T09:31:04.111Z,25.60
2022-09-12T09:33:36.057Z,26.00
2022-09-12T09:36:16.070Z,25.90
2022-09-12T09:38:50.088Z,25.70
2022-09-12T09:41:31.690Z,25.30
2022-09-12T09:44:03.082Z,24.70
2022-09-12T09:46:31.316Z,24.40
2022-09-12T09:49:03.136Z,24.50
2022-09-12T09:51:38.676Z,24.60
2022-09-12T09:54:14.674Z,25.30
2022-09-12T09:56:43.815Z,25.90
2022-09-12T09:59:16.004Z,26.20
2022-09-12T10:01:51.719Z,26.00
2022-09-12T10:04:22.466Z,26.00
2022-09-12T10:06:53.544Z,25.50
2022-09-12T10:09:27.067Z,25.20
2022-09-12T10:11:55.913Z,24.90
2022-09-12T10:14:35.014Z,24.40
2022-09-12T10:17:04.700Z,24.00
2022-09-12T10:19:37.130Z,23.80
2022-09-12T10:22:06.516Z,23.90
2022-09-12T10:24:37.842Z,23.90
2022-09-12T10:27:14.078Z,24.00
2022-09-12T10:29:47.760Z,23.80
2022-09-12T10:32:30.382Z,23.80
2022-09-12T10:35:01.519Z,23.70
2022-09-12T10:37:33.435Z,23.60
2022-09-12T10:40:03.648Z,23.40
2022-09-12T10:42:48.480Z,23.30
2022-09-12T10:45:24.168Z,23.30
2022-09-12T10:47:52.174Z,23.50
2022-09-12T10:50:30.156Z,23.50
2022-09-12T10:53:15.971Z,23.60
2022-09-12T10:55:54.701Z,23.70
2022-09-12T10:58:34.886Z,23.90
2022-09-12T11:01:16.677Z,23.80
2022-09-12T11:04:03.350Z,23.80
2022-09-12T11:06:40.512Z,23.90
2022-09-12T11:09:14.052Z,23.90
2022-09-12T11:11:53.095Z,23.80
2022-09-12T11:14:44.156Z,24.00
2022-09-12T11:17:24.254Z,24.20
2022-09-12T11:20:25.670Z,24.50
2022-09-12T11:23:27.493Z,24.80
2022-09-12T11:26:00.915Z,25.10
2022-09-12T11:28:38.304Z,25.10
2022-09-12T11:32:02.338Z,25.00
2022-09-12T11:34:43.165Z,25.00
2022-09-12T11:37:30.344Z,25.10
2022-09-12T11:40:06.298Z,25.40
2022-09-12T11:42:37.797Z,25.60
2022-09-12T11:45:14.555Z,25.80
2022-09-12T11:47:45.617Z,25.90
2022-09-12T11:50:21.396Z,26.10
2022-09-12T11:52:49.778Z,26.20
2022-09-12T11:55:20.371Z,26.30
2022-09-12T11:57:53.602Z,26.50
2022-09-12T12:00:23.904Z,26.50
2022-09-12T12:03:02.348Z,26.40
2022-09-12T12:05:37.045Z,26.40
2022-09-12T12:08:07.202Z,26.60
2022-09-12T12:10:38.917Z,26.50
2022-09-12T12:13:14.083Z,26.10
2022-09-12T12:15:48.258Z,26.20
2022-09-12T12:18:19.935Z,26.20
2022-09-12T12:20:49.704Z,26.60
2022-09-12T12:23:25.717Z,26.80
2022-09-12T12:25:55.714Z,26.80
2022-09-12T12:28:59.137Z,26.80
2022-09-12T12:31:27.085Z,26.80
2022-09-12T12:34:28.900Z,26.60
2022-09-12T12:36:59.154Z,26.70
2022-09-12T12:40:01.115Z,26.90
2022-09-12T12:43:11.175Z,27.20
2022-09-12T12:46:04.310Z,27.30
2022-09-12T12:48:45.905Z,27.00
2022-09-12T12:51:38.820Z,26.70
2022-09-12T12:54:32.499Z,26.50
2022-09-12T12:57:07.150Z,26.40
2022-09-12T12:59:35.252Z,26.60
2022-09-12T13:02:05.525Z,27.10
2022-09-12T13:04:34.294Z,27.20
2022-09-12T13:07:08.258Z,27.40
2022-09-12T13:09:44.208Z,27.50
2022-09-12T13:12:18.753Z,27.50
2022-09-12T13:14:52.610Z,27.50
2022-09-12T13:17:26.571Z,27.50
2022-09-12T13:20:26.036Z,27.50
2022-09-12T13:22:52.327Z,27.90
2022-09-12T13:25:26.454Z,28.10
2022-09-12T13:28:03.654Z,28.10
2022-09-12T13:30:34.414Z,28.10
2022-09-12T13:33:12.306Z,28.10
2022-09-12T13:35:50.758Z,28.10
2022-09-12T13:38:27.532Z,28.10
2022-09-12T13:41:19.864Z,28.10
2022-09-12T13:43:49.252Z,28.10
2022-09-12T13:46:23.371Z,28.00
2022-09-12T13:48:51.416Z,27.90
2022-09-12T13:51:25.580Z,28.00
2022-09-12T13:53:56.317Z,28.10
2022-09-12T13:56:25.562Z,27.80
2022-09-12T13:58:56.347Z,27.60
2022-09-12T14:01:25.607Z,27.50
2022-09-12T14:04:12.393Z,27.30
2022-09-12T14:06:49.602Z,27.00
2022-09-12T14:09:32.483Z,26.80
2022-09-12T14:12:03.059Z,26.80
2022-09-12T14:14:35.959Z,26.80
2022-09-12T14:17:18.954Z,26.60
2022-09-12T14:19:49.949Z,26.20
2022-09-12T14:22:18.326Z,25.90
2022-09-12T14:24:51.675Z,25.80
2022-09-12T14:27:25.688Z,25.70
2022-09-12T14:29:57.100Z,25.60
2022-09-12T14:32:26.358Z,25.50
2022-09-12T14:35:17.898Z,25.40
2022-09-12T14:37:48.238Z,25.40
2022-09-12T14:40:21.849Z,25.40
2022-09-12T14:42:56.910Z,25.40
2022-09-12T14:45:30.995Z,25.30
2022-09-12T14:48:00.002Z,25.30
2022-09-12T14:50:31.184Z,25.20
2022-09-12T14:53:07.160Z,25.20
2022-09-12T14:55:36.054Z,25.10
2022-09-12T14:58:26.184Z,25.10
2022-09-12T15:01:00.290Z,25.10
2022-09-12T15:03:31.660Z,25.10
2022-09-12T15:06:00.531Z,25.00
2022-09-12T15:08:28.485Z,24.90
2022-09-12T15:10:56.320Z,24.90
2022-09-12T15:13:28.187Z,24.90
2022-09-12T15:15:57.682Z,24.90
2022-09-12T15:18:27.901Z,25.00
2022-09-12T15:20:58.872Z,25.00
2022-09-12T15:23:33.165Z,25.00
2022-09-12T15:26:01.284Z,25.00
2022-09-12T15:28:32.193Z,24.90
2022-09-12T15:31:07.012Z,24.90
2022-09-12T15:33:35.176Z,24.90
2022-09-12T15:36:03.431Z,24.90
2022-09-12T15:38:31.826Z,24.80
2022-09-12T15:41:00.193Z,24.90
2022-09-12T15:43:28.161Z,24.90
2022-09-12T15:45:59.076Z,24.80
2022-09-12T15:48:27.028Z,24.70
2022-09-12T15:50:57.526Z,24.70
2022-09-12T15:53:25.350Z,24.70
2022-09-12T15:55:53.229Z,24.70
2022-09-12T15:58:21.066Z,24.60
2022-09-12T16:00:49.169Z,24.60
2022-09-12T16:03:23.739Z,24.60
2022-09-12T16:05:56.156Z,24.60
2022-09-12T16:08:24.269Z,24.50
2022-09-12T16:10:56.207Z,24.40
2022-09-12T16:13:24.097Z,24.30
2022-09-12T16:15:52.651Z,24.30
2022-09-12T16:18:21.899Z,24.40
2022-09-12T16:20:53.435Z,24.40
2022-09-12T16:23:21.614Z,24.40
2022-09-12T16:25:58.042Z,24.40
2022-09-12T16:28:25.992Z,24.40
2022-09-12T16:30:57.712Z,24.30
2022-09-12T16:33:27.743Z,24.30
2022-09-12T16:36:03.257Z,24.20
2022-09-12T16:38:31.155Z,24.20
2022-09-12T16:41:02.662Z,24.10
2022-09-12T16:43:31.321Z,23.90
2022-09-12T16:46:04.034Z,23.80
2022-09-12T16:48:33.730Z,23.70
2022-09-12T16:51:03.345Z,23.60
2022-09-12T16:53:31.756Z,23.50
2022-09-12T16:55:59.626Z,23.40
2022-09-12T16:58:28.091Z,23.30
2022-09-12T17:01:01.960Z,23.20
2022-09-12T17:03:30.060Z,23.00
2022-09-12T17:06:04.254Z,22.90
2022-09-12T17:08:34.194Z,22.80
2022-09-12T17:11:02.651Z,22.60
2022-09-12T17:14:02.814Z,22.50
2022-09-12T17:16:20.384Z,22.40
2022-09-12T17:18:48.433Z,22.30
2022-09-12T17:21:17.752Z,22.20
2022-09-12T17:23:45.717Z,22.10
2022-09-12T17:26:14.882Z,22.00
2022-09-12T17:28:43.747Z,21.90
2022-09-12T17:31:14.418Z,21.80
2022-09-12T17:33:42.477Z,21.70
2022-09-12T17:36:14.929Z,21.60
2022-09-12T17:38:45.744Z,21.60
2022-09-12T17:41:17.610Z,21.50
2022-09-12T17:43:46.346Z,21.30
2022-09-12T17:46:14.558Z,21.20
2022-09-12T17:48:42.648Z,21.10
2022-09-12T17:51:11.682Z,21.00
2022-09-12T17:53:39.641Z,20.90
2022-09-12T17:56:10.547Z,20.80
2022-09-12T17:58:38.579Z,20.70
2022-09-12T18:01:26.785Z,20.60
2022-09-12T18:03:55.539Z,20.50
2022-09-12T18:06:23.624Z,20.40
2022-09-12T18:08:53.029Z,20.20
2022-09-12T18:11:22.272Z,20.00
2022-09-12T18:13:50.671Z,19.80
2022-09-12T18:16:18.740Z,19.70
2022-09-12T18:18:46.637Z,19.70
2022-09-12T18:21:14.573Z,19.60
2022-09-12T18:23:42.513Z,19.50
2022-09-12T18:26:12.502Z,19.30
2022-09-12T18:28:43.921Z,19.10
2022-09-12T18:31:15.706Z,19.00
2022-09-12T18:33:44.262Z,19.00
2022-09-12T18:36:14.237Z,19.00
2022-09-12T18:38:42.601Z,19.00
2022-09-12T18:41:12.146Z,18.90
2022-09-12T18:43:42.073Z,18.80
2022-09-12T18:46:12.326Z,18.70
2022-09-12T18:48:40.308Z,18.70
2022-09-12T18:51:10.824Z,18.70
2022-09-12T18:53:45.004Z,18.70
2022-09-12T18:56:15.034Z,18.80
2022-09-12T18:58:46.784Z,18.80
2022-09-12T19:01:17.073Z,18.80
2022-09-12T19:03:45.544Z,18.80
2022-09-12T19:06:17.549Z,18.80
2022-09-12T19:08:46.315Z,18.80
2022-09-12T19:11:14.328Z,18.80
2022-09-12T19:13:45.799Z,18.90
2022-09-12T19:16:16.384Z,18.90
2022-09-12T19:18:44.564Z,18.90
2022-09-12T19:21:16.047Z,18.90
2022-09-12T19:23:44.151Z,18.80
2022-09-12T19:26:14.004Z,18.80
2022-09-12T19:28:42.341Z,18.70
2022-09-12T19:31:13.944Z,18.70
2022-09-12T19:33:42.704Z,18.50
2022-09-12T19:36:33.614Z,18.40
2022-09-12T19:39:01.067Z,18.20
2022-09-12T19:41:28.951Z,17.90
2022-09-12T19:43:57.017Z,17.80
2022-09-12T19:46:28.259Z,17.70
2022-09-12T19:48:56.289Z,17.70
2022-09-12T19:51:25.233Z,17.60
2022-09-12T19:53:53.426Z,17.60
2022-09-12T19:56:21.719Z,17.70
2022-09-12T19:58:56.869Z,17.60
2022-09-12T20:01:32.907Z,17.60
2022-09-12T20:04:01.283Z,17.60
2022-09-12T20:06:29.503Z,17.50
2022-09-12T20:09:00.263Z,17.20
2022-09-12T20:11:28.189Z,17.00
2022-09-12T20:13:56.322Z,16.90
2022-09-12T20:16:29.089Z,16.80
2022-09-12T20:18:59.102Z,16.90
2022-09-12T20:21:31.428Z,16.90
2022-09-12T20:24:04.623Z,16.90
2022-09-12T20:26:32.731Z,16.80
2022-09-12T20:29:01.312Z,16.70
2022-09-12T20:31:38.409Z,16.70
2022-09-12T20:34:06.974Z,16.50
2022-09-12T20:36:35.372Z,16.50
2022-09-12T20:39:03.235Z,16.40
2022-09-12T20:41:33.163Z,16.40
2022-09-12T20:44:01.143Z,16.30
2022-09-12T20:46:30.639Z,16.20
2022-09-12T20:48:59.395Z,16.20
2022-09-12T20:51:29.483Z,16.10
2022-09-12T20:53:59.226Z,16.10
2022-09-12T20:56:28.397Z,16.00
2022-09-12T20:58:56.625Z,15.90
2022-09-12T21:01:25.634Z,15.90
2022-09-12T21:03:55.314Z,15.80
2022-09-12T21:06:23.187Z,15.80
2022-09-12T21:08:51.689Z,15.80
2022-09-12T21:11:20.783Z,15.70
2022-09-12T21:13:48.801Z,15.60
2022-09-12T21:16:18.620Z,15.60
2022-09-12T21:18:47.149Z,15.60
2022-09-12T21:21:16.878Z,15.60
2022-09-12T21:23:44.766Z,15.60
2022-09-12T21:26:12.926Z,15.70
2022-09-12T21:28:40.792Z,15.70
2022-09-12T21:31:08.696Z,15.80
2022-09-12T21:33:36.845Z,15.80
2022-09-12T21:36:05.727Z,15.90
2022-09-12T21:38:35.448Z,15.80
2022-09-12T21:41:08.620Z,15.80
2022-09-12T21:43:36.963Z,15.80
2022-09-12T21:46:06.094Z,15.70
2022-09-12T21:48:34.838Z,15.70
2022-09-12T21:51:03.500Z,15.60
2022-09-12T21:53:32.011Z,15.50
2022-09-12T21:56:04.185Z,15.50
2022-09-12T21:58:32.115Z,15.40
2022-09-12T22:01:00.932Z,15.30
2022-09-12T22:03:29.551Z,15.30
2022-09-12T22:06:01.703Z,15.30
2022-09-12T22:08:31.237Z,15.20
2022-09-12T22:11:00.668Z,15.20
2022-09-12T22:13:31.346Z,15.20
2022-09-12T22:16:00.574Z,15.20
2022-09-12T22:18:28.523Z,15.20
2022-09-12T22:21:04.485Z,15.20
2022-09-12T22:23:50.256Z,15.20
2022-09-12T22:26:18.263Z,15.20
2022-09-12T22:28:48.112Z,15.20
2022-09-12T22:31:16.886Z,15.20
2022-09-12T22:33:46.097Z,15.20
2022-09-12T22:36:13.985Z,15.20
2022-09-12T22:38:42.078Z,15.20
2022-09-12T22:41:12.385Z,15.20
2022-09-12T22:43:40.610Z,15.20
2022-09-12T22:46:12.396Z,15.00
2022-09-12T22:48:40.562Z,15.00
2022-09-12T22:51:08.536Z,14.90
2022-09-12T22:53:37.213Z,14.80
2022-09-12T22:56:06.053Z,14.70
2022-09-12T22:58:35.525Z,14.80
2022-09-12T23:01:03.502Z,14.90
2022-09-12T23:03:33.190Z,14.90
2022-09-12T23:06:01.204Z,14.80
2022-09-12T23:08:29.620Z,14.70
2022-09-12T23:11:05.163Z,14.70
2022-09-12T23:13:33.656Z,14.70
2022-09-12T23:16:03.282Z,14.60
2022-09-12T23:18:34.737Z,14.50
2022-09-12T23:21:04.000Z,14.50
2022-09-12T23:23:32.331Z,14.50
2022-09-12T23:26:05.371Z,14.50
2022-09-12T23:28:34.083Z,14.50
2022-09-12T23:31:02.096Z,14.60
2022-09-12T23:33:32.053Z,14.50
2022-09-12T23:36:01.211Z,14.50
2022-09-12T23:38:30.300Z,14.50
2022-09-12T23:40:58.760Z,14.40
2022-09-12T23:43:27.277Z,14.40
2022-09-12T23:45:55.247Z,14.40
2022-09-12T23:48:23.262Z,14.40
2022-09-12T23:50:52.723Z,14.40
2022-09-12T23:53:21.662Z,14.40
2022-09-12T23:55:49.554Z,14.30
2022-09-12T23:58:17.985Z,14.30
